createdAt,value
2018-09-03T00:00:33.151Z,98.89
2018-09-03T00:03:00.361Z,98.49
2018-09-03T00:05:27.760Z,98.05
2018-09-03T00:07:55.068Z,97.57
2018-09-03T00:10:22.366Z,97.92
2018-09-03T00:12:49.618Z,98.16
2018-09-03T00:15:16.889Z,98.54
2018-09-03T00:17:44.109Z,98.23
2018-09-03T00:20:11.427Z,99.13
2018-09-03T00:22:38.653Z,98.76
2018-09-03T00:25:06.401Z,98.62
2018-09-03T00:27:33.651Z,98.55
2018-09-03T00:30:00.879Z,99.02
2018-09-03T00:32:33.771Z,99.01
2018-09-03T00:35:06.749Z,99.35
2018-09-03T00:37:39.699Z,99.10
2018-09-03T00:40:12.683Z,100.00
2018-09-03T00:42:45.445Z,100.00
2018-09-03T00:45:18.322Z,99.11
2018-09-03T00:47:45.631Z,99.30
2018-09-03T00:50:12.819Z,98.90
2018-09-03T00:52:40.083Z,98.70
2018-09-03T00:55:07.383Z,98.82
2018-09-03T00:57:34.673Z,99.25
2018-09-03T01:00:02.160Z,98.50
2018-09-03T01:02:29.472Z,98.84
2018-09-03T01:04:56.639Z,99.10
2018-09-03T01:07:23.962Z,98.79
2018-09-03T01:09:51.243Z,98.75
2018-09-03T01:12:18.480Z,98.98
2018-09-03T01:14:45.747Z,98.91
2018-09-03T01:17:12.978Z,98.60
2018-09-03T01:19:40.246Z,99.01
2018-09-03T01:22:07.477Z,99.16
2018-09-03T01:24:34.757Z,99.07
2018-09-03T01:27:02.005Z,99.52
2018-09-03T01:29:29.296Z,100.00
2018-09-03T01:31:56.602Z,100.00
2018-09-03T01:34:24.583Z,99.96
2018-09-03T01:36:51.875Z,100.00
2018-09-03T01:39:19.171Z,100.00
2018-09-03T01:41:46.450Z,100.00
2018-09-03T01:44:13.712Z,100.00
2018-09-03T01:46:40.952Z,99.98
2018-09-03T01:49:08.154Z,99.98
2018-09-03T01:51:35.407Z,100.00
2018-09-03T01:54:02.666Z,100.00
2018-09-03T01:56:29.882Z,100.00
2018-09-03T01:58:57.132Z,100.00
2018-09-03T02:01:24.473Z,100.00
2018-09-03T02:03:51.757Z,99.73
2018-09-03T02:06:19.164Z,100.00
2018-09-03T02:08:46.313Z,99.24
2018-09-03T02:11:13.694Z,100.00
2018-09-03T02:13:41.017Z,99.65
2018-09-03T02:16:08.384Z,99.71
2018-09-03T02:18:35.644Z,99.74
2018-09-03T02:21:02.971Z,100.00
2018-09-03T02:23:30.181Z,100.00
2018-09-03T02:25:57.452Z,100.00
2018-09-03T02:28:24.734Z,99.92
2018-09-03T02:30:51.887Z,99.88
2018-09-03T02:33:19.142Z,99.45
2018-09-03T02:35:46.421Z,100.00
2018-09-03T02:38:13.695Z,100.00
2018-09-03T02:40:40.970Z,100.00
2018-09-03T02:43:08.253Z,100.00
2018-09-03T02:45:35.514Z,100.00
2018-09-03T02:48:02.767Z,100.00
2018-09-03T02:50:30.048Z,100.00
2018-09-03T02:52:57.211Z,99.80
2018-09-03T02:55:24.518Z,99.63
2018-09-03T02:57:51.752Z,99.31
2018-09-03T03:00:21.914Z,98.82
2018-09-03T03:02:49.126Z,98.60
2018-09-03T03:05:16.390Z,99.06
2018-09-03T03:07:43.658Z,99.27
2018-09-03T03:10:10.949Z,99.04
2018-09-03T03:12:38.124Z,98.45
2018-09-03T03:15:05.392Z,98.48
2018-09-03T03:17:32.704Z,98.96
2018-09-03T03:19:59.985Z,99.33
2018-09-03T03:22:27.241Z,98.89
2018-09-03T03:24:54.513Z,98.70
2018-09-03T03:27:21.725Z,98.76
2018-09-03T03:29:48.981Z,98.78
2018-09-03T03:32:16.304Z,98.79
2018-09-03T03:34:43.529Z,99.28
2018-09-03T03:37:10.794Z,98.59
2018-09-03T03:39:38.005Z,98.85
2018-09-03T03:42:05.613Z,98.38
2018-09-03T03:44:32.841Z,98.32
2018-09-03T03:47:00.131Z,98.68
2018-09-03T03:49:27.407Z,98.43
2018-09-03T03:51:54.625Z,98.84
2018-09-03T03:54:21.937Z,98.51
2018-09-03T03:56:49.184Z,98.58
2018-09-03T03:59:16.409Z,97.59
2018-09-03T04:01:43.641Z,97.39
2018-09-03T04:04:10.958Z,98.45
2018-09-03T04:06:38.246Z,98.27
2018-09-03T04:09:07.108Z,98.54
2018-09-03T04:11:34.407Z,98.42
2018-09-03T04:14:01.755Z,98.33
2018-09-03T04:16:28.970Z,98.92
2018-09-03T04:18:56.274Z,98.24
2018-09-03T04:21:23.512Z,98.14
2018-09-03T04:23:50.789Z,97.58
2018-09-03T04:26:18.006Z,98.64
2018-09-03T04:28:45.373Z,99.06
2018-09-03T04:33:52.228Z,98.71
2018-09-03T04:36:19.535Z,99.20
2018-09-03T04:38:46.970Z,99.27
2018-09-03T04:41:14.337Z,99.73
2018-09-03T04:43:41.722Z,99.06
2018-09-03T04:46:09.167Z,100.00
2018-09-03T04:48:36.434Z,99.98
2018-09-03T04:51:03.830Z,100.00
2018-09-03T04:53:31.062Z,99.83
2018-09-03T04:55:58.350Z,98.52
2018-09-03T04:58:25.674Z,98.88
2018-09-03T05:00:52.948Z,99.01
2018-09-03T05:03:20.155Z,98.05
2018-09-03T05:05:47.466Z,98.58
2018-09-03T05:08:14.731Z,98.09
2018-09-03T05:10:42.059Z,98.71
2018-09-03T05:13:09.339Z,98.89
2018-09-03T05:15:36.648Z,98.59
2018-09-03T05:18:04.079Z,97.76
2018-09-03T05:20:31.425Z,98.15
2018-09-03T05:22:58.806Z,97.52
2018-09-03T05:25:26.238Z,97.09
2018-09-03T05:27:53.487Z,97.38
2018-09-03T05:30:21.151Z,96.55
2018-09-03T05:32:48.483Z,96.80
2018-09-03T05:35:15.742Z,97.59
2018-09-03T05:37:42.990Z,97.03
2018-09-03T05:40:10.482Z,97.54
2018-09-03T05:42:37.917Z,98.01
2018-09-03T05:45:05.531Z,97.33
2018-09-03T05:47:32.767Z,97.04
2018-09-03T05:49:59.977Z,97.96
2018-09-03T05:52:27.388Z,98.13
2018-09-03T05:54:54.693Z,97.39
2018-09-03T05:57:22.086Z,98.25
2018-09-03T05:59:49.348Z,97.04
2018-09-03T06:02:16.621Z,96.96
2018-09-03T06:04:44.042Z,96.41
2018-09-03T06:07:11.244Z,96.40
2018-09-03T06:09:38.512Z,97.12
2018-09-03T06:12:05.657Z,97.77
2018-09-03T06:14:32.850Z,97.54
2018-09-03T06:17:00.250Z,96.98
2018-09-03T06:19:27.531Z,96.49
2018-09-03T06:21:54.956Z,96.69
2018-09-03T06:24:22.314Z,96.89
2018-09-03T06:26:49.676Z,95.95
2018-09-03T06:29:17.055Z,96.47
2018-09-03T06:31:44.312Z,95.91
2018-09-03T06:34:11.577Z,96.31
2018-09-03T06:36:38.887Z,97.02
2018-09-03T06:39:07.302Z,96.01
2018-09-03T06:41:34.589Z,95.86
2018-09-03T06:44:02.052Z,96.08
2018-09-03T06:46:29.364Z,95.47
2018-09-03T06:48:56.629Z,95.17
2018-09-03T06:51:23.992Z,95.47
2018-09-03T06:53:51.309Z,95.15
2018-09-03T06:56:18.630Z,95.11
2018-09-03T06:58:45.929Z,94.39
2018-09-03T07:01:13.360Z,95.34
2018-09-03T07:03:41.359Z,95.56
2018-09-03T07:06:08.928Z,95.31
2018-09-03T07:08:36.897Z,95.09
2018-09-03T07:11:04.386Z,94.40
2018-09-03T07:13:31.619Z,94.62
2018-09-03T07:15:58.890Z,94.73
2018-09-03T07:18:26.192Z,94.35
2018-09-03T07:20:53.418Z,93.59
2018-09-03T07:23:20.748Z,93.71
2018-09-03T07:25:47.988Z,94.20
2018-09-03T07:28:15.276Z,94.01
2018-09-03T07:30:42.615Z,93.82
2018-09-03T07:33:09.911Z,93.11
2018-09-03T07:35:37.189Z,93.29
2018-09-03T07:38:04.560Z,93.46
2018-09-03T07:40:31.822Z,94.24
2018-09-03T07:42:59.268Z,93.21
2018-09-03T07:45:26.596Z,92.74
2018-09-03T07:47:53.875Z,92.87
2018-09-03T07:50:21.168Z,93.23
2018-09-03T07:52:48.446Z,92.57
2018-09-03T07:55:15.812Z,93.59
2018-09-03T07:57:43.083Z,94.03
2018-09-03T08:00:10.520Z,92.75
2018-09-03T08:02:37.898Z,93.65
2018-09-03T08:05:05.582Z,94.41
2018-09-03T08:07:32.903Z,93.77
2018-09-03T08:10:00.271Z,93.71
2018-09-03T08:12:27.468Z,93.10
2018-09-03T08:14:54.754Z,93.51
2018-09-03T08:17:22.004Z,94.63
2018-09-03T08:19:49.328Z,94.76
2018-09-03T08:22:16.647Z,95.48
2018-09-03T08:24:43.945Z,94.57
2018-09-03T08:27:11.306Z,94.23
2018-09-03T08:29:38.640Z,93.04
2018-09-03T08:32:05.944Z,91.57
2018-09-03T08:34:33.248Z,91.47
2018-09-03T08:37:00.564Z,90.87
2018-09-03T08:39:27.836Z,90.43
2018-09-03T08:41:55.150Z,90.52
2018-09-03T08:44:22.411Z,90.20
2018-09-03T08:46:49.659Z,90.41
2018-09-03T08:49:17.077Z,90.26
2018-09-03T08:51:44.355Z,89.82
2018-09-03T08:54:11.676Z,89.40
2018-09-03T08:56:39.055Z,89.42
2018-09-03T08:59:06.425Z,89.86
2018-09-03T09:01:33.763Z,89.91
2018-09-03T09:04:01.227Z,89.73
2018-09-03T09:06:28.532Z,88.92
2018-09-03T09:08:55.861Z,89.51
2018-09-03T09:11:23.196Z,88.97
2018-09-03T09:13:50.496Z,88.96
2018-09-03T09:16:17.811Z,89.71
2018-09-03T09:18:45.153Z,89.42
2018-09-03T09:21:12.442Z,90.42
2018-09-03T09:23:39.757Z,89.85
2018-09-03T09:26:07.022Z,88.12
2018-09-03T09:28:34.316Z,87.78
2018-09-03T09:31:01.628Z,88.48
2018-09-03T09:33:28.839Z,88.43
2018-09-03T09:35:56.195Z,88.24
2018-09-03T09:38:23.471Z,88.50
2018-09-03T09:40:50.849Z,88.44
2018-09-03T09:43:18.275Z,87.80
2018-09-03T09:45:45.571Z,87.38
2018-09-03T09:48:12.976Z,87.59
2018-09-03T09:50:40.984Z,88.76
2018-09-03T09:53:08.196Z,88.55
2018-09-03T09:55:35.565Z,88.59
2018-09-03T09:58:02.831Z,87.93
2018-09-03T10:00:35.871Z,87.57
2018-09-03T10:03:03.080Z,87.69
2018-09-03T10:05:30.465Z,87.29
2018-09-03T10:07:57.766Z,86.30
2018-09-03T10:10:25.041Z,86.86
2018-09-03T10:12:52.361Z,86.58
2018-09-03T10:15:19.669Z,86.27
2018-09-03T10:17:46.893Z,85.62
2018-09-03T10:20:14.190Z,85.31
2018-09-03T10:22:41.467Z,86.08
2018-09-03T10:25:08.809Z,85.90
2018-09-03T10:27:36.087Z,86.52
2018-09-03T10:30:03.504Z,87.07
2018-09-03T10:32:31.521Z,86.45
2018-09-03T10:34:58.847Z,86.45
2018-09-03T10:37:26.222Z,85.98
2018-09-03T10:39:53.553Z,85.18
2018-09-03T10:42:24.828Z,84.89
2018-09-03T10:44:52.231Z,83.88
2018-09-03T10:47:19.684Z,84.44
2018-09-03T10:49:46.947Z,84.04
2018-09-03T10:52:14.297Z,83.04
2018-09-03T10:54:41.629Z,83.62
2018-09-03T10:57:08.974Z,82.53
2018-09-03T10:59:36.269Z,82.12
2018-09-03T11:02:03.588Z,81.93
2018-09-03T11:04:30.869Z,79.79
2018-09-03T11:06:58.099Z,80.21
2018-09-03T11:09:25.435Z,79.65
2018-09-03T11:11:52.779Z,79.26
2018-09-03T11:14:20.005Z,78.71
2018-09-03T11:16:47.315Z,80.28
2018-09-03T11:19:14.994Z,80.13
2018-09-03T11:21:42.342Z,79.54
2018-09-03T11:24:09.603Z,79.62
2018-09-03T11:26:36.895Z,79.99
2018-09-03T11:29:04.200Z,79.63
2018-09-03T11:31:31.578Z,78.77
2018-09-03T11:33:58.792Z,78.99
2018-09-03T11:36:26.064Z,78.58
2018-09-03T11:38:53.350Z,78.90
2018-09-03T11:41:20.586Z,77.30
2018-09-03T11:43:47.844Z,76.83
2018-09-03T11:46:15.150Z,76.29
2018-09-03T11:48:42.372Z,75.78
2018-09-03T11:51:09.636Z,76.25
2018-09-03T11:53:37.056Z,76.78
2018-09-03T11:56:04.370Z,76.42
2018-09-03T11:58:31.755Z,76.57
2018-09-03T12:01:00.002Z,76.42
2018-09-03T12:03:27.353Z,76.27
2018-09-03T12:05:55.348Z,74.41
2018-09-03T12:08:22.690Z,74.04
2018-09-03T12:10:49.967Z,74.51
2018-09-03T12:13:17.236Z,73.89
2018-09-03T12:15:49.074Z,72.81
2018-09-03T12:18:16.577Z,72.65
2018-09-03T12:20:43.843Z,73.18
2018-09-03T12:23:11.048Z,73.37
2018-09-03T12:25:38.948Z,72.91
2018-09-03T12:28:06.212Z,72.68
2018-09-03T12:30:33.481Z,72.31
2018-09-03T12:33:00.761Z,72.44
2018-09-03T12:35:28.120Z,72.35
2018-09-03T12:37:55.432Z,72.01
2018-09-03T12:40:22.687Z,71.75
2018-09-03T12:42:49.988Z,72.17
2018-09-03T12:45:21.429Z,72.50
2018-09-03T12:47:48.680Z,71.39
2018-09-03T12:50:15.938Z,72.22
2018-09-03T12:52:43.243Z,71.35
2018-09-03T12:55:10.488Z,70.96
2018-09-03T12:57:37.711Z,70.47
2018-09-03T13:00:05.677Z,71.34
2018-09-03T13:02:39.414Z,70.27
2018-09-03T13:04:59.590Z,69.90
2018-09-03T13:10:23.065Z,68.92
2018-09-03T13:12:50.357Z,67.72
2018-09-03T13:15:17.576Z,69.34
2018-09-03T13:17:44.917Z,69.14
2018-09-03T13:20:12.445Z,68.52
2018-09-03T13:22:39.773Z,68.27
2018-09-03T13:25:07.214Z,67.98
2018-09-03T13:27:34.457Z,68.47
2018-09-03T13:30:01.814Z,66.62
2018-09-03T13:32:29.270Z,65.87
2018-09-03T13:34:56.582Z,65.61
2018-09-03T13:37:23.888Z,66.35
2018-09-03T13:39:51.189Z,65.70
2018-09-03T13:42:18.528Z,65.21
2018-09-03T13:44:45.930Z,66.18
2018-09-03T13:47:13.250Z,65.91
2018-09-03T13:49:40.654Z,63.24
2018-09-03T13:52:07.933Z,63.75
2018-09-03T13:54:35.181Z,62.15
2018-09-03T13:57:02.485Z,60.56
2018-09-03T13:59:29.785Z,60.61
2018-09-03T14:01:57.241Z,61.33
2018-09-03T14:04:25.208Z,61.89
2018-09-03T14:06:52.612Z,61.73
2018-09-03T14:09:19.988Z,59.93
2018-09-03T14:11:47.261Z,59.82
2018-09-03T14:14:14.663Z,59.62
2018-09-03T14:16:41.930Z,59.57
2018-09-03T14:19:09.263Z,59.10
2018-09-03T14:21:36.644Z,57.78
2018-09-03T14:24:03.978Z,59.96
2018-09-03T14:26:31.250Z,59.38
2018-09-03T14:28:58.563Z,56.00
2018-09-03T14:31:25.910Z,57.59
2018-09-03T14:33:53.514Z,56.44
2018-09-03T14:36:20.883Z,56.36
2018-09-03T14:38:48.152Z,56.43
2018-09-03T14:41:15.454Z,56.47
2018-09-03T14:43:42.932Z,52.30
2018-09-03T14:46:10.190Z,53.09
2018-09-03T14:48:37.605Z,51.17
2018-09-03T14:51:05.007Z,53.84
2018-09-03T14:53:32.241Z,50.80
2018-09-03T14:55:59.648Z,49.93
2018-09-03T14:58:27.017Z,48.46
2018-09-03T15:00:54.300Z,50.46
2018-09-03T15:03:21.607Z,51.62
2018-09-03T15:05:48.863Z,52.78
2018-09-03T15:08:16.223Z,52.46
2018-09-03T15:10:43.755Z,50.02
2018-09-03T15:13:11.061Z,46.50
2018-09-03T15:15:38.335Z,48.53
2018-09-03T15:18:05.647Z,51.18
2018-09-03T15:20:32.920Z,53.48
2018-09-03T15:23:00.233Z,53.92
2018-09-03T15:25:27.765Z,55.13
2018-09-03T15:27:55.110Z,55.63
2018-09-03T15:30:22.526Z,56.52
2018-09-03T15:32:49.783Z,55.68
2018-09-03T15:35:17.126Z,55.36
2018-09-03T15:37:45.223Z,55.73
2018-09-03T15:40:12.625Z,57.34
2018-09-03T15:42:39.978Z,57.26
2018-09-03T15:45:07.453Z,58.10
2018-09-03T15:47:34.870Z,58.97
2018-09-03T15:50:02.144Z,59.85
2018-09-03T15:52:29.472Z,60.02
2018-09-03T15:54:56.785Z,59.67
2018-09-03T15:57:24.345Z,61.41
2018-09-03T15:59:51.639Z,60.79
2018-09-03T16:02:18.907Z,62.43
2018-09-03T16:04:46.264Z,62.34
2018-09-03T16:07:13.486Z,62.61
2018-09-03T16:09:40.755Z,61.45
2018-09-03T16:12:08.163Z,62.30
2018-09-03T16:14:35.441Z,62.14
2018-09-03T16:17:02.739Z,61.29
2018-09-03T16:19:30.047Z,62.01
2018-09-03T16:21:57.411Z,61.37
2018-09-03T16:24:24.615Z,62.02
2018-09-03T16:26:51.887Z,60.78
2018-09-03T16:29:19.194Z,60.78
2018-09-03T16:31:46.502Z,58.80
2018-09-03T16:34:13.830Z,58.44
2018-09-03T16:36:41.137Z,57.09
2018-09-03T16:40:32.975Z,56.68
2018-09-03T16:43:00.207Z,56.38
2018-09-03T16:45:27.480Z,55.91
2018-09-03T16:47:54.760Z,56.63
2018-09-03T16:50:22.114Z,55.93
2018-09-03T16:52:49.376Z,56.28
2018-09-03T16:55:16.760Z,55.66
2018-09-03T16:57:43.964Z,55.74
2018-09-03T17:00:11.308Z,58.03
2018-09-03T17:02:38.695Z,59.89
2018-09-03T17:05:06.240Z,59.35
2018-09-03T17:07:33.594Z,61.26
2018-09-03T17:10:00.762Z,62.10
2018-09-03T17:12:28.145Z,62.72
2018-09-03T17:16:20.022Z,62.84
2018-09-03T17:18:47.250Z,63.52
2018-09-03T17:21:14.580Z,64.34
2018-09-03T17:23:42.084Z,65.01
2018-09-03T17:26:09.379Z,65.35
2018-09-03T17:28:42.487Z,64.75
2018-09-03T17:31:09.781Z,64.89
2018-09-03T17:33:37.101Z,64.70
2018-09-03T17:36:04.449Z,64.36
2018-09-03T17:38:31.768Z,65.03
2018-09-03T17:40:59.075Z,64.97
2018-09-03T17:43:26.372Z,65.58
2018-09-03T17:45:53.654Z,65.18
2018-09-03T17:48:20.856Z,65.64
2018-09-03T17:50:48.284Z,66.25
2018-09-03T17:53:15.620Z,66.46
2018-09-03T17:55:43.072Z,66.66
2018-09-03T17:58:10.295Z,67.15
2018-09-03T18:00:37.598Z,67.20
2018-09-03T18:03:05.517Z,68.10
2018-09-03T18:05:32.793Z,68.53
2018-09-03T18:08:00.248Z,68.84
2018-09-03T18:10:27.540Z,69.19
2018-09-03T18:12:54.885Z,69.49
2018-09-03T18:15:22.164Z,69.55
2018-09-03T18:17:49.606Z,69.98
2018-09-03T18:20:16.894Z,70.02
2018-09-03T18:22:44.202Z,70.57
2018-09-03T18:25:11.457Z,70.24
2018-09-03T18:27:38.736Z,70.64
2018-09-03T18:30:06.147Z,70.90
2018-09-03T18:32:34.485Z,71.46
2018-09-03T18:35:01.747Z,71.76
2018-09-03T18:37:29.040Z,72.34
2018-09-03T18:39:56.325Z,72.85
2018-09-03T18:42:23.665Z,73.35
2018-09-03T18:44:51.065Z,73.33
2018-09-03T18:47:18.603Z,73.93
2018-09-03T18:49:45.894Z,74.08
2018-09-03T18:52:13.374Z,74.35
2018-09-03T18:54:40.759Z,74.55
2018-09-03T18:57:08.069Z,74.60
2018-09-03T18:59:35.358Z,74.80
2018-09-03T19:02:02.649Z,74.93
2018-09-03T19:04:29.960Z,75.08
2018-09-03T19:06:57.203Z,75.35
2018-09-03T19:09:24.560Z,75.56
2018-09-03T19:11:51.837Z,76.27
2018-09-03T19:14:19.205Z,76.63
2018-09-03T19:16:46.634Z,76.54
2018-09-03T19:19:13.989Z,77.34
2018-09-03T19:21:41.448Z,76.79
2018-09-03T19:24:08.990Z,76.94
2018-09-03T19:26:36.243Z,77.02
2018-09-03T19:29:03.640Z,77.48
2018-09-03T19:31:31.039Z,78.24
2018-09-03T19:33:59.561Z,78.45
2018-09-03T19:36:27.080Z,79.28
2018-09-03T19:38:54.320Z,79.44
2018-09-03T19:41:21.716Z,79.75
2018-09-03T19:43:48.997Z,79.64
2018-09-03T19:46:16.460Z,79.15
2018-09-03T19:48:44.845Z,79.63
2018-09-03T19:51:12.232Z,80.16
2018-09-03T19:53:39.544Z,80.11
2018-09-03T19:56:06.921Z,80.63
2018-09-03T19:58:34.233Z,80.38
2018-09-03T20:01:01.487Z,80.54
2018-09-03T20:03:28.798Z,80.13
2018-09-03T20:05:57.815Z,81.43
2018-09-03T20:08:25.364Z,81.57
2018-09-03T20:10:52.570Z,81.45
2018-09-03T20:13:19.842Z,82.08
2018-09-03T20:15:47.202Z,81.93
2018-09-03T20:18:14.488Z,82.15
2018-09-03T20:20:41.782Z,81.75
2018-09-03T20:23:09.095Z,82.65
2018-09-03T20:25:36.439Z,81.73
2018-09-03T20:28:03.719Z,82.07
2018-09-03T20:30:31.052Z,82.46
2018-09-03T20:32:58.279Z,82.40
2018-09-03T20:38:07.965Z,82.84
2018-09-03T20:40:35.308Z,82.55
2018-09-03T20:43:02.672Z,82.80
2018-09-03T20:45:29.978Z,83.12
2018-09-03T20:47:57.359Z,83.26
2018-09-03T20:50:24.693Z,83.45
2018-09-03T20:52:51.966Z,84.64
2018-09-03T20:55:19.336Z,85.22
2018-09-03T20:57:46.648Z,85.34
2018-09-03T21:00:13.940Z,85.59
2018-09-03T21:02:41.247Z,85.31
2018-09-03T21:05:10.001Z,85.78
2018-09-03T21:07:37.254Z,86.01
2018-09-03T21:10:05.348Z,85.72
2018-09-03T21:12:32.663Z,85.83
2018-09-03T21:14:59.910Z,85.70
2018-09-03T21:17:27.262Z,84.90
2018-09-03T21:19:54.547Z,84.67
2018-09-03T21:22:21.921Z,85.07
2018-09-03T21:24:49.296Z,84.95
2018-09-03T21:27:16.517Z,84.74
2018-09-03T21:29:43.845Z,85.38
2018-09-03T21:32:11.263Z,85.18
2018-09-03T21:34:38.544Z,85.58
2018-09-03T21:37:05.851Z,85.15
2018-09-03T21:39:33.133Z,85.17
2018-09-03T21:42:00.563Z,85.52
2018-09-03T21:44:27.845Z,85.93
2018-09-03T21:46:55.223Z,85.97
2018-09-03T21:49:22.515Z,86.30
2018-09-03T21:51:49.782Z,85.80
2018-09-03T21:54:17.110Z,86.93
2018-09-03T21:56:44.452Z,86.44
2018-09-03T21:59:11.721Z,86.14
2018-09-03T22:01:38.964Z,86.45
2018-09-03T22:04:06.245Z,86.57
2018-09-03T22:06:33.557Z,86.89
2018-09-03T22:09:01.311Z,87.08
2018-09-03T22:11:28.757Z,86.55
2018-09-03T22:13:56.063Z,85.81
2018-09-03T22:16:23.326Z,85.57
2018-09-03T22:18:50.710Z,86.52
2018-09-03T22:21:18.059Z,86.34
2018-09-03T22:23:45.327Z,85.67
2018-09-03T22:26:12.554Z,86.36
2018-09-03T22:28:39.848Z,86.35
2018-09-03T22:31:07.267Z,86.13
2018-09-03T22:33:34.499Z,86.73
2018-09-03T22:36:01.861Z,86.65
2018-09-03T22:38:29.156Z,87.04
2018-09-03T22:40:56.472Z,87.87
2018-09-03T22:43:23.715Z,88.08
2018-09-03T22:45:51.042Z,87.91
2018-09-03T22:48:18.415Z,87.46
2018-09-03T22:50:45.790Z,87.56
2018-09-03T22:54:48.709Z,87.94
2018-09-03T22:57:16.079Z,87.51
2018-09-03T22:59:43.373Z,88.01
2018-09-03T23:02:10.634Z,88.11
2018-09-03T23:04:37.968Z,87.24
2018-09-03T23:07:05.318Z,88.72
2018-09-03T23:09:32.676Z,88.61
2018-09-03T23:13:04.030Z,88.69
2018-09-03T23:15:31.367Z,89.12
2018-09-03T23:17:58.631Z,87.99
2018-09-03T23:20:25.871Z,88.00
2018-09-03T23:22:53.159Z,86.54
2018-09-03T23:25:20.467Z,86.58
2018-09-03T23:27:47.879Z,86.65
2018-09-03T23:30:15.187Z,86.15
2018-09-03T23:32:42.530Z,86.61
2018-09-03T23:35:09.850Z,86.69
2018-09-03T23:37:37.789Z,87.68
2018-09-03T23:40:05.731Z,88.27
2018-09-03T23:42:33.016Z,88.91
2018-09-03T23:45:00.328Z,89.43
2018-09-03T23:47:27.656Z,88.45
2018-09-03T23:49:55.023Z,87.08
2018-09-03T23:52:22.301Z,88.23
2018-09-03T23:54:49.639Z,88.28
2018-09-03T23:57:16.897Z,87.63
2018-09-03T23:59:44.244Z,87.95
